Time;durP1;ratioP1;P1;durP2;ratioP2;P2;SDS_P1;SDS_P2;PMS_P1;PMS_P2;Temp;Humidity;BMP_temperature;BMP_pressure;BME280_temperature;BME280_humidity;BME280_pressure;Samples;Min_cycle;Max_cycle;Signal;HPM_P1;HPM_P2
2022/06/14 00:00:53;;;;;;;5.95;4;;;;;;;13.45;61.43555;95809.52;;;;
2022/06/14 00:01:54;;;;;;;5.95;4;;;;;;;13.45;61.43555;95809.52;;;;
2022/06/14 00:02:54;;;;;;;5.95;4;;;;;;;13.45;61.43555;95809.52;;;;
2022/06/14 00:03:57;;;;;;;5.95;4;;;;;;;13.45;61.43555;95809.52;;;;
2022/06/14 00:04:58;;;;;;;5.95;4;;;;;;;13.45;61.43555;95809.52;;;;
2022/06/14 00:05:58;;;;;;;5.95;4;;;;;;;13.45;61.43555;95809.52;;;;
2022/06/14 00:07:02;;;;;;;5.95;4;;;;;;;13.45;61.43555;95809.52;;;;
2022/06/14 00:08:02;;;;;;;6.9;4.099999;;;;;;;13.32;62.02734;95817.17;;;;
2022/06/14 00:09:04;;;;;;;6.9;4.099999;;;;;;;13.32;62.02734;95817.17;;;;
2022/06/14 00:10:04;;;;;;;6.9;4.099999;;;;;;;13.32;62.02734;95817.17;;;;
2022/06/14 00:11:05;;;;;;;6.9;4.099999;;;;;;;13.32;62.02734;95817.17;;;;
2022/06/14 00:12:09;;;;;;;6.9;4.099999;;;;;;;13.32;62.02734;95817.17;;;;
2022/06/14 00:13:10;;;;;;;6.9;4.099999;;;;;;;13.32;62.02734;95817.17;;;;
2022/06/14 00:14:11;;;;;;;6.9;4.099999;;;;;;;13.32;62.02734;95817.17;;;;
2022/06/14 00:15:12;;;;;;;6.9;4.099999;;;;;;;13.32;62.02734;95817.17;;;;
2022/06/14 00:16:13;;;;;;;6.9;4.099999;;;;;;;13.32;62.02734;95817.17;;;;
2022/06/14 00:17:14;;;;;;;6.9;4.099999;;;;;;;13.32;62.02734;95817.17;;;;
2022/06/14 00:18:14;;;;;;;6.9;4.099999;;;;;;;13.32;62.02734;95817.17;;;;
2022/06/14 00:19:16;;;;;;;6.9;4.099999;;;;;;;13.32;62.02734;95817.17;;;;
2022/06/14 00:20:17;;;;;;;6.9;4.099999;;;;;;;13.32;62.02734;95817.17;;;;
2022/06/14 00:21:17;;;;;;;6.9;4.099999;;;;;;;13.32;62.02734;95817.17;;;;
2022/06/14 00:22:18;;;;;;;6.9;4.099999;;;;;;;13.32;62.02734;95817.17;;;;
2022/06/14 00:23:19;;;;;;;6.9;4.099999;;;;;;;13.32;62.02734;95817.17;;;;
2022/06/14 00:24:20;;;;;;;6.9;4.099999;;;;;;;13.32;62.02734;95817.17;;;;
2022/06/14 00:25:20;;;;;;;6.9;4.099999;;;;;;;13.32;62.02734;95817.17;;;;
2022/06/14 00:26:26;;;;;;;6.9;4.099999;;;;;;;13.32;62.02734;95817.17;;;;
2022/06/14 00:27:27;;;;;;;6.9;4.099999;;;;;;;13.32;62.02734;95817.17;;;;
2022/06/14 00:28:27;;;;;;;6.9;4.099999;;;;;;;13.32;62.02734;95817.17;;;;
2022/06/14 00:29:31;;;;;;;4.95;4.1;;;;;;;13.32;62.73145;95815.44;;;;
2022/06/14 00:30:31;;;;;;;4.95;4.1;;;;;;;13.32;62.73145;95815.44;;;;
2022/06/14 00:31:32;;;;;;;4.95;4.1;;;;;;;13.32;62.73145;95815.44;;;;
2022/06/14 00:32:33;;;;;;;4.95;4.1;;;;;;;13.32;62.73145;95815.44;;;;
2022/06/14 00:33:33;;;;;;;4.95;4.1;;;;;;;13.32;62.73145;95815.44;;;;
2022/06/14 00:34:34;;;;;;;4.95;4.1;;;;;;;13.32;62.73145;95815.44;;;;
2022/06/14 00:35:35;;;;;;;4.95;4.1;;;;;;;13.32;62.73145;95815.44;;;;
2022/06/14 00:36:35;;;;;;;4.95;4.1;;;;;;;13.32;62.73145;95815.44;;;;
2022/06/14 00:37:36;;;;;;;4.95;4.1;;;;;;;13.32;62.73145;95815.44;;;;
2022/06/14 00:38:37;;;;;;;4.95;4.1;;;;;;;13.32;62.73145;95815.44;;;;
2022/06/14 00:39:37;;;;;;;4.95;4.1;;;;;;;13.32;62.73145;95815.44;;;;
2022/06/14 00:40:38;;;;;;;7.349999;4.199999;;;;;;;13.29;62.99902;95815.87;;;;
2022/06/14 00:41:40;;;;;;;7.349999;4.199999;;;;;;;13.29;62.99902;95815.87;;;;
2022/06/14 00:42:44;;;;;;;7.349999;4.199999;;;;;;;13.29;62.99902;95815.87;;;;
2022/06/14 00:43:44;;;;;;;7.349999;4.199999;;;;;;;13.29;62.99902;95815.87;;;;
2022/06/14 00:44:45;;;;;;;7.349999;4.199999;;;;;;;13.29;62.99902;95815.87;;;;
2022/06/14 00:47:06;;;;;;;7.349999;4.199999;;;;;;;13.29;62.99902;95815.87;;;;
2022/06/14 00:48:11;;;;;;;7.349999;4.199999;;;;;;;13.29;62.99902;95815.87;;;;
2022/06/14 00:49:14;;;;;;;7.349999;4.199999;;;;;;;13.29;62.99902;95815.87;;;;
2022/06/14 00:50:19;;;;;;;7.349999;4.199999;;;;;;;13.29;62.99902;95815.87;;;;
2022/06/14 00:51:23;;;;;;;4.45;4.05;;;;;;;13.18;63.35254;95805.94;;;;
2022/06/14 00:52:29;;;;;;;4.45;4.05;;;;;;;13.18;63.35254;95805.94;;;;
2022/06/14 00:53:37;;;;;;;4.45;4.05;;;;;;;13.18;63.35254;95805.94;;;;
2022/06/14 00:54:41;;;;;;;4.45;4.05;;;;;;;13.18;63.35254;95805.94;;;;
2022/06/14 00:55:47;;;;;;;4.45;4.05;;;;;;;13.18;63.35254;95805.94;;;;
2022/06/14 00:56:52;;;;;;;4.45;4.05;;;;;;;13.18;63.35254;95805.94;;;;
2022/06/14 00:57:58;;;;;;;4.45;4.05;;;;;;;13.18;63.35254;95805.94;;;;
2022/06/14 00:59:04;;;;;;;4.45;4.05;;;;;;;13.18;63.35254;95805.94;;;;
2022/06/14 01:00:14;;;;;;;4.45;4.05;;;;;;;13.18;63.35254;95805.94;;;;
2022/06/14 01:01:19;;;;;;;6.650001;4.200001;;;;;;;12.93;63.83789;95796.58;;;;
2022/06/14 01:02:23;;;;;;;6.650001;4.200001;;;;;;;12.93;63.83789;95796.58;;;;
2022/06/14 01:03:28;;;;;;;6.650001;4.200001;;;;;;;12.93;63.83789;95796.58;;;;
2022/06/14 01:04:33;;;;;;;6.650001;4.200001;;;;;;;12.93;63.83789;95796.58;;;;
2022/06/14 01:06:05;;;;;;;6.650001;4.200001;;;;;;;12.93;63.83789;95796.58;;;;
2022/06/14 01:07:11;;;;;;;6.650001;4.200001;;;;;;;12.93;63.83789;95796.58;;;;
2022/06/14 01:08:20;;;;;;;6.650001;4.200001;;;;;;;12.93;63.83789;95796.58;;;;
2022/06/14 01:09:22;;;;;;;6.650001;4.200001;;;;;;;12.93;63.83789;95796.58;;;;
2022/06/14 01:10:26;;;;;;;6.650001;4.200001;;;;;;;12.93;63.83789;95796.58;;;;
2022/06/14 01:11:30;;;;;;;6.650001;4.200001;;;;;;;12.93;63.83789;95796.58;;;;
2022/06/14 01:12:35;;;;;;;5.599999;4.6;;;;;;;12.68;64.45215;95801.9;;;;
2022/06/14 01:13:41;;;;;;;5.599999;4.6;;;;;;;12.68;64.45215;95801.9;;;;
2022/06/14 01:14:42;;;;;;;5.599999;4.6;;;;;;;12.68;64.45215;95801.9;;;;
2022/06/14 01:15:53;;;;;;;5.599999;4.6;;;;;;;12.68;64.45215;95801.9;;;;
2022/06/14 01:16:54;;;;;;;5.599999;4.6;;;;;;;12.68;64.45215;95801.9;;;;
2022/06/14 01:17:56;;;;;;;5.599999;4.6;;;;;;;12.68;64.45215;95801.9;;;;
2022/06/14 01:19:00;;;;;;;5.599999;4.6;;;;;;;12.68;64.45215;95801.9;;;;
2022/06/14 01:20:04;;;;;;;5.599999;4.6;;;;;;;12.68;64.45215;95801.9;;;;
2022/06/14 01:21:05;;;;;;;5.599999;4.6;;;;;;;12.68;64.45215;95801.9;;;;
2022/06/14 01:22:06;;;;;;;5.599999;4.6;;;;;;;12.68;64.45215;95801.9;;;;
2022/06/14 01:23:40;;;;;;;5.599999;4.6;;;;;;;12.68;64.45215;95801.9;;;;
2022/06/14 01:24:40;;;;;;;5.599999;4.6;;;;;;;12.68;64.45215;95801.9;;;;
2022/06/14 01:25:42;;;;;;;5.599999;4.6;;;;;;;12.68;64.45215;95801.9;;;;
2022/06/14 01:26:46;;;;;;;5.599999;4.6;;;;;;;12.68;64.45215;95801.9;;;;
2022/06/14 01:27:48;;;;;;;5.599999;4.6;;;;;;;12.68;64.45215;95801.9;;;;
2022/06/14 01:28:48;;;;;;;5.599999;4.6;;;;;;;12.68;64.45215;95801.9;;;;
2022/06/14 01:29:56;;;;;;;5.599999;4.6;;;;;;;12.68;64.45215;95801.9;;;;
2022/06/14 01:31:07;;;;;;;5.599999;4.6;;;;;;;12.68;64.45215;95801.9;;;;
2022/06/14 01:32:08;;;;;;;5.599999;4.6;;;;;;;12.68;64.45215;95801.9;;;;
2022/06/14 01:33:12;;;;;;;5.599999;4.6;;;;;;;12.68;64.45215;95801.9;;;;
2022/06/14 01:34:19;;;;;;;5.6;4.149999;;;;;;;12.24;65.54785;95796.48;;;;
2022/06/14 01:35:22;;;;;;;5.6;4.149999;;;;;;;12.24;65.54785;95796.48;;;;
2022/06/14 01:36:26;;;;;;;5.6;4.149999;;;;;;;12.24;65.54785;95796.48;;;;
2022/06/14 01:37:32;;;;;;;5.6;4.149999;;;;;;;12.24;65.54785;95796.48;;;;
2022/06/14 01:38:33;;;;;;;5.6;4.149999;;;;;;;12.24;65.54785;95796.48;;;;
2022/06/14 01:39:34;;;;;;;5.6;4.149999;;;;;;;12.24;65.54785;95796.48;;;;
2022/06/14 01:40:36;;;;;;;5.6;4.149999;;;;;;;12.24;65.54785;95796.48;;;;
2022/06/14 01:41:46;;;;;;;5.6;4.149999;;;;;;;12.24;65.54785;95796.48;;;;
2022/06/14 01:42:56;;;;;;;5.6;4.149999;;;;;;;12.24;65.54785;95796.48;;;;
2022/06/14 01:44:13;;;;;;;4.450001;4;;;;;;;12.06;65.85547;95789.84;;;;
2022/06/14 01:45:22;;;;;;;4.450001;4;;;;;;;12.06;65.85547;95789.84;;;;
2022/06/14 01:46:31;;;;;;;4.450001;4;;;;;;;12.06;65.85547;95789.84;;;;
2022/06/14 01:47:40;;;;;;;4.450001;4;;;;;;;12.06;65.85547;95789.84;;;;
2022/06/14 01:48:51;;;;;;;4.450001;4;;;;;;;12.06;65.85547;95789.84;;;;
2022/06/14 01:55:25;;;;;;;5.45;4.349999;;;;;;;11.96;66.17676;95789.33;;;;
2022/06/14 01:56:35;;;;;;;5.45;4.349999;;;;;;;11.96;66.17676;95789.33;;;;
2022/06/14 01:57:44;;;;;;;5.45;4.349999;;;;;;;11.96;66.17676;95789.33;;;;
2022/06/14 01:58:55;;;;;;;5.45;4.349999;;;;;;;11.96;66.17676;95789.33;;;;
2022/06/14 02:00:06;;;;;;;5.45;4.349999;;;;;;;11.96;66.17676;95789.33;;;;
2022/06/14 02:01:11;;;;;;;5.45;4.349999;;;;;;;11.96;66.17676;95789.33;;;;
2022/06/14 02:02:18;;;;;;;5.45;4.349999;;;;;;;11.96;66.17676;95789.33;;;;
2022/06/14 02:08:49;;;;;;;6.749999;4.75;;;;;;;11.82;66.56641;95793.44;;;;
2022/06/14 02:09:54;;;;;;;6.749999;4.75;;;;;;;11.82;66.56641;95793.44;;;;
2022/06/14 02:11:01;;;;;;;6.749999;4.75;;;;;;;11.82;66.56641;95793.44;;;;
2022/06/14 02:12:09;;;;;;;6.749999;4.75;;;;;;;11.82;66.56641;95793.44;;;;
2022/06/14 02:13:15;;;;;;;6.749999;4.75;;;;;;;11.82;66.56641;95793.44;;;;
2022/06/14 02:14:20;;;;;;;6.749999;4.75;;;;;;;11.82;66.56641;95793.44;;;;
2022/06/14 02:15:27;;;;;;;6.749999;4.75;;;;;;;11.82;66.56641;95793.44;;;;
2022/06/14 02:16:34;;;;;;;4.849999;4.349999;;;;;;;11.8;66.79102;95789.77;;;;
2022/06/14 02:17:42;;;;;;;4.849999;4.349999;;;;;;;11.8;66.79102;95789.77;;;;
2022/06/14 02:18:49;;;;;;;4.849999;4.349999;;;;;;;11.8;66.79102;95789.77;;;;
2022/06/14 02:19:57;;;;;;;4.849999;4.349999;;;;;;;11.8;66.79102;95789.77;;;;
2022/06/14 02:21:03;;;;;;;4.849999;4.349999;;;;;;;11.8;66.79102;95789.77;;;;
2022/06/14 02:22:11;;;;;;;4.849999;4.349999;;;;;;;11.8;66.79102;95789.77;;;;
2022/06/14 02:23:15;;;;;;;4.849999;4.349999;;;;;;;11.8;66.79102;95789.77;;;;
2022/06/14 02:24:15;;;;;;;4.849999;4.349999;;;;;;;11.8;66.79102;95789.77;;;;
2022/06/14 02:25:21;;;;;;;4.849999;4.349999;;;;;;;11.8;66.79102;95789.77;;;;
2022/06/14 02:26:27;;;;;;;4.849999;4.349999;;;;;;;11.8;66.79102;95789.77;;;;
2022/06/14 02:27:33;;;;;;;5.25;4.75;;;;;;;11.69;67.0332;95788.29;;;;
2022/06/14 02:28:40;;;;;;;5.25;4.75;;;;;;;11.69;67.0332;95788.29;;;;
2022/06/14 02:29:47;;;;;;;5.25;4.75;;;;;;;11.69;67.0332;95788.29;;;;
2022/06/14 02:30:50;;;;;;;5.25;4.75;;;;;;;11.69;67.0332;95788.29;;;;
2022/06/14 02:31:56;;;;;;;5.25;4.75;;;;;;;11.69;67.0332;95788.29;;;;
2022/06/14 02:33:01;;;;;;;5.25;4.75;;;;;;;11.69;67.0332;95788.29;;;;
2022/06/14 02:34:08;;;;;;;5.25;4.75;;;;;;;11.69;67.0332;95788.29;;;;
2022/06/14 02:35:14;;;;;;;5.25;4.75;;;;;;;11.69;67.0332;95788.29;;;;
2022/06/14 02:36:21;;;;;;;5.25;4.75;;;;;;;11.69;67.0332;95788.29;;;;
2022/06/14 02:37:25;;;;;;;5.25;4.55;;;;;;;11.65;67.37207;95785.74;;;;
2022/06/14 02:38:32;;;;;;;5.25;4.55;;;;;;;11.65;67.37207;95785.74;;;;
2022/06/14 02:39:38;;;;;;;5.25;4.55;;;;;;;11.65;67.37207;95785.74;;;;
2022/06/14 02:40:44;;;;;;;5.25;4.55;;;;;;;11.65;67.37207;95785.74;;;;
2022/06/14 02:41:51;;;;;;;5.25;4.55;;;;;;;11.65;67.37207;95785.74;;;;
2022/06/14 02:42:57;;;;;;;5.25;4.55;;;;;;;11.65;67.37207;95785.74;;;;
2022/06/14 02:44:02;;;;;;;5.25;4.55;;;;;;;11.65;67.37207;95785.74;;;;
2022/06/14 02:45:09;;;;;;;5.25;4.55;;;;;;;11.65;67.37207;95785.74;;;;
2022/06/14 02:46:15;;;;;;;5.25;4.55;;;;;;;11.65;67.37207;95785.74;;;;
2022/06/14 02:47:23;;;;;;;5.25;4.55;;;;;;;11.65;67.37207;95785.74;;;;
2022/06/14 02:48:28;;;;;;;5.1;4.15;;;;;;;11.65;67.68555;95782.17;;;;
2022/06/14 02:49:34;;;;;;;5.1;4.15;;;;;;;11.65;67.68555;95782.17;;;;
2022/06/14 02:50:39;;;;;;;5.1;4.15;;;;;;;11.65;67.68555;95782.17;;;;
2022/06/14 02:51:45;;;;;;;5.1;4.15;;;;;;;11.65;67.68555;95782.17;;;;
2022/06/14 02:52:50;;;;;;;5.1;4.15;;;;;;;11.65;67.68555;95782.17;;;;
2022/06/14 02:53:58;;;;;;;5.1;4.15;;;;;;;11.65;67.68555;95782.17;;;;
2022/06/14 02:55:05;;;;;;;5.1;4.15;;;;;;;11.65;67.68555;95782.17;;;;
2022/06/14 02:56:10;;;;;;;5.1;4.15;;;;;;;11.65;67.68555;95782.17;;;;
2022/06/14 02:57:16;;;;;;;5.1;4.15;;;;;;;11.65;67.68555;95782.17;;;;
2022/06/14 02:58:22;;;;;;;5.1;4.15;;;;;;;11.65;67.68555;95782.17;;;;
2022/06/14 02:59:29;;;;;;;5.1;4.15;;;;;;;11.65;67.68555;95782.17;;;;
2022/06/14 03:00:36;;;;;;;5.1;4.15;;;;;;;11.65;67.68555;95782.17;;;;
2022/06/14 03:01:42;;;;;;;5.1;4.15;;;;;;;11.65;67.68555;95782.17;;;;
2022/06/14 03:02:46;;;;;;;5.1;4.15;;;;;;;11.65;67.68555;95782.17;;;;
2022/06/14 03:03:51;;;;;;;5.1;4.15;;;;;;;11.65;67.68555;95782.17;;;;
2022/06/14 03:04:57;;;;;;;5.1;4.15;;;;;;;11.65;67.68555;95782.17;;;;
2022/06/14 03:06:02;;;;;;;5.1;4.15;;;;;;;11.65;67.68555;95782.17;;;;
2022/06/14 03:07:08;;;;;;;5.1;4.15;;;;;;;11.65;67.68555;95782.17;;;;
2022/06/14 03:08:13;;;;;;;5.1;4.15;;;;;;;11.65;67.68555;95782.17;;;;
2022/06/14 03:09:17;;;;;;;7.2;4.25;;;;;;;11.62;68.00488;95783.47;;;;
2022/06/14 03:10:21;;;;;;;7.2;4.25;;;;;;;11.62;68.00488;95783.47;;;;
2022/06/14 03:11:22;;;;;;;7.2;4.25;;;;;;;11.62;68.00488;95783.47;;;;
2022/06/14 03:12:31;;;;;;;7.2;4.25;;;;;;;11.62;68.00488;95783.47;;;;
2022/06/14 03:13:40;;;;;;;7.2;4.25;;;;;;;11.62;68.00488;95783.47;;;;
2022/06/14 03:14:59;;;;;;;7.2;4.25;;;;;;;11.62;68.00488;95783.47;;;;
2022/06/14 03:16:09;;;;;;;7.2;4.25;;;;;;;11.62;68.00488;95783.47;;;;
2022/06/14 03:17:22;;;;;;;7.2;4.25;;;;;;;11.62;68.00488;95783.47;;;;
2022/06/14 03:18:34;;;;;;;7.2;4.25;;;;;;;11.62;68.00488;95783.47;;;;
2022/06/14 03:19:43;;;;;;;7.2;4.25;;;;;;;11.62;68.00488;95783.47;;;;
2022/06/14 03:20:50;;;;;;;6.799999;4.349999;;;;;;;11.6;68.20703;95784.18;;;;
2022/06/14 03:21:55;;;;;;;6.799999;4.349999;;;;;;;11.6;68.20703;95784.18;;;;
2022/06/14 03:23:04;;;;;;;6.799999;4.349999;;;;;;;11.6;68.20703;95784.18;;;;
2022/06/14 03:24:16;;;;;;;6.799999;4.349999;;;;;;;11.6;68.20703;95784.18;;;;
2022/06/14 03:25:25;;;;;;;6.799999;4.349999;;;;;;;11.6;68.20703;95784.18;;;;
2022/06/14 03:26:34;;;;;;;6.799999;4.349999;;;;;;;11.6;68.20703;95784.18;;;;
2022/06/14 03:27:42;;;;;;;6.799999;4.349999;;;;;;;11.6;68.20703;95784.18;;;;
2022/06/14 03:28:48;;;;;;;6.799999;4.349999;;;;;;;11.6;68.20703;95784.18;;;;
2022/06/14 03:29:54;;;;;;;6.799999;4.349999;;;;;;;11.6;68.20703;95784.18;;;;
2022/06/14 03:31:01;;;;;;;6.2;4.349999;;;;;;;11.44;68.46289;95783.2;;;;
2022/06/14 03:32:07;;;;;;;6.2;4.349999;;;;;;;11.44;68.46289;95783.2;;;;
2022/06/14 03:33:16;;;;;;;6.2;4.349999;;;;;;;11.44;68.46289;95783.2;;;;
2022/06/14 03:34:23;;;;;;;6.2;4.349999;;;;;;;11.44;68.46289;95783.2;;;;
2022/06/14 03:35:30;;;;;;;6.2;4.349999;;;;;;;11.44;68.46289;95783.2;;;;
2022/06/14 03:36:34;;;;;;;6.2;4.349999;;;;;;;11.44;68.46289;95783.2;;;;
2022/06/14 03:37:35;;;;;;;6.2;4.349999;;;;;;;11.44;68.46289;95783.2;;;;
2022/06/14 03:38:36;;;;;;;6.2;4.349999;;;;;;;11.44;68.46289;95783.2;;;;
2022/06/14 03:39:41;;;;;;;6.2;4.349999;;;;;;;11.44;68.46289;95783.2;;;;
2022/06/14 03:40:47;;;;;;;6.2;4.349999;;;;;;;11.44;68.46289;95783.2;;;;
2022/06/14 03:41:48;;;;;;;4.900001;4.400001;;;;;;;11.34;68.82617;95791.64;;;;
2022/06/14 03:42:53;;;;;;;4.900001;4.400001;;;;;;;11.34;68.82617;95791.64;;;;
2022/06/14 03:43:53;;;;;;;4.900001;4.400001;;;;;;;11.34;68.82617;95791.64;;;;
2022/06/14 03:44:58;;;;;;;4.900001;4.400001;;;;;;;11.34;68.82617;95791.64;;;;
2022/06/14 03:45:59;;;;;;;4.900001;4.400001;;;;;;;11.34;68.82617;95791.64;;;;
2022/06/14 03:47:14;;;;;;;4.900001;4.400001;;;;;;;11.34;68.82617;95791.64;;;;
2022/06/14 03:48:20;;;;;;;4.900001;4.400001;;;;;;;11.34;68.82617;95791.64;;;;
2022/06/14 03:49:21;;;;;;;4.900001;4.400001;;;;;;;11.34;68.82617;95791.64;;;;
2022/06/14 03:50:23;;;;;;;4.900001;4.400001;;;;;;;11.34;68.82617;95791.64;;;;
2022/06/14 03:51:34;;;;;;;4.900001;4.400001;;;;;;;11.34;68.82617;95791.64;;;;
2022/06/14 03:52:56;;;;;;;6.45;4.35;;;;;;;11.24;69.18848;95792.95;;;;
2022/06/14 03:54:10;;;;;;;6.45;4.35;;;;;;;11.24;69.18848;95792.95;;;;
2022/06/14 03:55:26;;;;;;;6.45;4.35;;;;;;;11.24;69.18848;95792.95;;;;
2022/06/14 03:56:42;;;;;;;6.45;4.35;;;;;;;11.24;69.18848;95792.95;;;;
2022/06/14 03:57:57;;;;;;;6.45;4.35;;;;;;;11.24;69.18848;95792.95;;;;
2022/06/14 03:59:10;;;;;;;6.45;4.35;;;;;;;11.24;69.18848;95792.95;;;;
2022/06/14 04:00:24;;;;;;;6.45;4.35;;;;;;;11.24;69.18848;95792.95;;;;
2022/06/14 04:01:33;;;;;;;6.45;4.35;;;;;;;11.24;69.18848;95792.95;;;;
2022/06/14 04:02:56;;;;;;;5.2;4.4;;;;;;;11.25;69.41504;95789.4;;;;
2022/06/14 04:04:13;;;;;;;5.2;4.4;;;;;;;11.25;69.41504;95789.4;;;;
2022/06/14 04:05:30;;;;;;;5.2;4.4;;;;;;;11.25;69.41504;95789.4;;;;
2022/06/14 04:06:44;;;;;;;5.2;4.4;;;;;;;11.25;69.41504;95789.4;;;;
2022/06/14 04:07:54;;;;;;;5.2;4.4;;;;;;;11.25;69.41504;95789.4;;;;
2022/06/14 04:09:03;;;;;;;5.2;4.4;;;;;;;11.25;69.41504;95789.4;;;;
2022/06/14 04:10:17;;;;;;;5.2;4.4;;;;;;;11.25;69.41504;95789.4;;;;
2022/06/14 04:11:31;;;;;;;5.2;4.4;;;;;;;11.25;69.41504;95789.4;;;;
2022/06/14 04:12:48;;;;;;;5.2;4.4;;;;;;;11.25;69.41504;95789.4;;;;
2022/06/14 04:14:02;;;;;;;4.7;4.25;;;;;;;11.27;69.5918;95795.19;;;;
2022/06/14 04:15:14;;;;;;;4.7;4.25;;;;;;;11.27;69.5918;95795.19;;;;
2022/06/14 04:16:28;;;;;;;4.7;4.25;;;;;;;11.27;69.5918;95795.19;;;;
2022/06/14 04:17:45;;;;;;;4.7;4.25;;;;;;;11.27;69.5918;95795.19;;;;
2022/06/14 04:18:56;;;;;;;4.7;4.25;;;;;;;11.27;69.5918;95795.19;;;;
2022/06/14 04:20:07;;;;;;;4.7;4.25;;;;;;;11.27;69.5918;95795.19;;;;
2022/06/14 04:21:16;;;;;;;4.7;4.25;;;;;;;11.27;69.5918;95795.19;;;;
2022/06/14 04:22:30;;;;;;;4.7;4.25;;;;;;;11.27;69.5918;95795.19;;;;
2022/06/14 04:23:41;;;;;;;4.7;4.25;;;;;;;11.27;69.5918;95795.19;;;;
2022/06/14 04:24:53;;;;;;;6.799998;4.55;;;;;;;11.55;69.67969;95794.98;;;;
2022/06/14 04:26:00;;;;;;;6.799998;4.55;;;;;;;11.55;69.67969;95794.98;;;;
2022/06/14 04:27:06;;;;;;;6.799998;4.55;;;;;;;11.55;69.67969;95794.98;;;;
2022/06/14 04:28:14;;;;;;;6.799998;4.55;;;;;;;11.55;69.67969;95794.98;;;;
2022/06/14 04:29:21;;;;;;;6.799998;4.55;;;;;;;11.55;69.67969;95794.98;;;;
2022/06/14 04:30:26;;;;;;;6.799998;4.55;;;;;;;11.55;69.67969;95794.98;;;;
2022/06/14 04:31:34;;;;;;;6.799998;4.55;;;;;;;11.55;69.67969;95794.98;;;;
2022/06/14 04:32:40;;;;;;;6.799998;4.55;;;;;;;11.55;69.67969;95794.98;;;;
2022/06/14 04:33:47;;;;;;;6.799998;4.55;;;;;;;11.55;69.67969;95794.98;;;;
2022/06/14 04:34:54;;;;;;;5.349999;4.3;;;;;;;11.79;69.55664;95785.92;;;;
2022/06/14 04:36:01;;;;;;;5.349999;4.3;;;;;;;11.79;69.55664;95785.92;;;;
2022/06/14 04:37:07;;;;;;;5.349999;4.3;;;;;;;11.79;69.55664;95785.92;;;;
2022/06/14 04:38:14;;;;;;;5.349999;4.3;;;;;;;11.79;69.55664;95785.92;;;;
2022/06/14 04:39:19;;;;;;;5.349999;4.3;;;;;;;11.79;69.55664;95785.92;;;;
2022/06/14 04:40:25;;;;;;;5.349999;4.3;;;;;;;11.79;69.55664;95785.92;;;;
2022/06/14 04:41:32;;;;;;;5.349999;4.3;;;;;;;11.79;69.55664;95785.92;;;;
2022/06/14 04:42:39;;;;;;;5.349999;4.3;;;;;;;11.79;69.55664;95785.92;;;;
2022/06/14 04:43:45;;;;;;;5.349999;4.3;;;;;;;11.79;69.55664;95785.92;;;;
2022/06/14 04:44:51;;;;;;;5.349999;4.3;;;;;;;11.79;69.55664;95785.92;;;;
2022/06/14 04:45:56;;;;;;;5.65;4.849999;;;;;;;12.02;69.625;95786.78;;;;
2022/06/14 04:47:02;;;;;;;5.65;4.849999;;;;;;;12.02;69.625;95786.78;;;;
2022/06/14 04:48:09;;;;;;;5.65;4.849999;;;;;;;12.02;69.625;95786.78;;;;
2022/06/14 04:49:15;;;;;;;5.65;4.849999;;;;;;;12.02;69.625;95786.78;;;;
2022/06/14 04:50:20;;;;;;;5.65;4.849999;;;;;;;12.02;69.625;95786.78;;;;
2022/06/14 04:51:24;;;;;;;5.65;4.849999;;;;;;;12.02;69.625;95786.78;;;;
2022/06/14 04:52:29;;;;;;;5.65;4.849999;;;;;;;12.02;69.625;95786.78;;;;
2022/06/14 04:53:35;;;;;;;5.65;4.849999;;;;;;;12.02;69.625;95786.78;;;;
2022/06/14 04:54:43;;;;;;;5.65;4.849999;;;;;;;12.02;69.625;95786.78;;;;
2022/06/14 04:55:49;;;;;;;5.65;4.849999;;;;;;;12.02;69.625;95786.78;;;;
2022/06/14 04:56:56;;;;;;;5.65;4.849999;;;;;;;12.02;69.625;95786.78;;;;
2022/06/14 04:58:02;;;;;;;5.65;4.849999;;;;;;;12.02;69.625;95786.78;;;;
2022/06/14 04:59:08;;;;;;;5.65;4.849999;;;;;;;12.02;69.625;95786.78;;;;
2022/06/14 05:00:14;;;;;;;5.65;4.849999;;;;;;;12.02;69.625;95786.78;;;;
2022/06/14 05:01:18;;;;;;;5.65;4.849999;;;;;;;12.02;69.625;95786.78;;;;
2022/06/14 05:02:22;;;;;;;5.65;4.849999;;;;;;;12.02;69.625;95786.78;;;;
2022/06/14 05:03:29;;;;;;;5.65;4.849999;;;;;;;12.02;69.625;95786.78;;;;
2022/06/14 05:04:36;;;;;;;5.65;4.849999;;;;;;;12.02;69.625;95786.78;;;;
2022/06/14 05:05:42;;;;;;;5.65;4.849999;;;;;;;12.02;69.625;95786.78;;;;
2022/06/14 05:06:47;;;;;;;5.9;4.55;;;;;;;12.67;69.68457;95795.39;;;;
2022/06/14 05:07:51;;;;;;;5.9;4.55;;;;;;;12.67;69.68457;95795.39;;;;
2022/06/14 05:08:57;;;;;;;5.9;4.55;;;;;;;12.67;69.68457;95795.39;;;;
2022/06/14 05:10:02;;;;;;;5.9;4.55;;;;;;;12.67;69.68457;95795.39;;;;
2022/06/14 05:11:09;;;;;;;5.9;4.55;;;;;;;12.67;69.68457;95795.39;;;;
2022/06/14 05:12:16;;;;;;;5.9;4.55;;;;;;;12.67;69.68457;95795.39;;;;
2022/06/14 05:13:23;;;;;;;5.9;4.55;;;;;;;12.67;69.68457;95795.39;;;;
2022/06/14 05:14:32;;;;;;;5.9;4.55;;;;;;;12.67;69.68457;95795.39;;;;
2022/06/14 05:15:38;;;;;;;5.9;4.55;;;;;;;12.67;69.68457;95795.39;;;;
2022/06/14 05:16:45;;;;;;;5.9;4.55;;;;;;;12.67;69.68457;95795.39;;;;
2022/06/14 05:17:51;;;;;;;5.699999;4.5;;;;;;;13.19;69.24707;95788.06;;;;
2022/06/14 05:18:57;;;;;;;5.699999;4.5;;;;;;;13.19;69.24707;95788.06;;;;
2022/06/14 05:20:05;;;;;;;5.699999;4.5;;;;;;;13.19;69.24707;95788.06;;;;
2022/06/14 05:21:12;;;;;;;5.699999;4.5;;;;;;;13.19;69.24707;95788.06;;;;
2022/06/14 05:22:21;;;;;;;5.699999;4.5;;;;;;;13.19;69.24707;95788.06;;;;
2022/06/14 05:23:30;;;;;;;5.699999;4.5;;;;;;;13.19;69.24707;95788.06;;;;
2022/06/14 05:24:40;;;;;;;5.699999;4.5;;;;;;;13.19;69.24707;95788.06;;;;
2022/06/14 05:25:41;;;;;;;5.699999;4.5;;;;;;;13.19;69.24707;95788.06;;;;
2022/06/14 05:26:49;;;;;;;5.699999;4.5;;;;;;;13.19;69.24707;95788.06;;;;
2022/06/14 05:28:04;;;;;;;5.699999;4.5;;;;;;;13.19;69.24707;95788.06;;;;
2022/06/14 05:29:10;;;;;;;6.75;4.25;;;;;;;13.82;68.74707;95789.15;;;;
2022/06/14 05:30:19;;;;;;;6.75;4.25;;;;;;;13.82;68.74707;95789.15;;;;
2022/06/14 05:31:33;;;;;;;6.75;4.25;;;;;;;13.82;68.74707;95789.15;;;;
2022/06/14 05:32:41;;;;;;;6.75;4.25;;;;;;;13.82;68.74707;95789.15;;;;
2022/06/14 05:33:51;;;;;;;6.75;4.25;;;;;;;13.82;68.74707;95789.15;;;;
2022/06/14 05:34:57;;;;;;;6.75;4.25;;;;;;;13.82;68.74707;95789.15;;;;
2022/06/14 05:36:14;;;;;;;6.75;4.25;;;;;;;13.82;68.74707;95789.15;;;;
2022/06/14 05:37:22;;;;;;;6.75;4.25;;;;;;;13.82;68.74707;95789.15;;;;
2022/06/14 05:38:28;;;;;;;6.75;4.25;;;;;;;13.82;68.74707;95789.15;;;;
2022/06/14 05:39:39;;;;;;;7.5;4.099999;;;;;;;14.32;68;95796.42;;;;
2022/06/14 05:40:46;;;;;;;7.5;4.099999;;;;;;;14.32;68;95796.42;;;;
2022/06/14 05:41:54;;;;;;;7.5;4.099999;;;;;;;14.32;68;95796.42;;;;
2022/06/14 05:43:02;;;;;;;7.5;4.099999;;;;;;;14.32;68;95796.42;;;;
2022/06/14 05:44:09;;;;;;;7.5;4.099999;;;;;;;14.32;68;95796.42;;;;
2022/06/14 05:45:12;;;;;;;7.5;4.099999;;;;;;;14.32;68;95796.42;;;;
2022/06/14 05:46:17;;;;;;;7.5;4.099999;;;;;;;14.32;68;95796.42;;;;
2022/06/14 05:47:22;;;;;;;7.5;4.099999;;;;;;;14.32;68;95796.42;;;;
2022/06/14 05:48:28;;;;;;;7.5;4.099999;;;;;;;14.32;68;95796.42;;;;
2022/06/14 05:49:32;;;;;;;6.299999;3.8;;;;;;;14.88;67.10742;95794.78;;;;
2022/06/14 05:50:38;;;;;;;6.299999;3.8;;;;;;;14.88;67.10742;95794.78;;;;
2022/06/14 05:51:42;;;;;;;6.299999;3.8;;;;;;;14.88;67.10742;95794.78;;;;
2022/06/14 05:52:48;;;;;;;6.299999;3.8;;;;;;;14.88;67.10742;95794.78;;;;
2022/06/14 05:53:53;;;;;;;6.299999;3.8;;;;;;;14.88;67.10742;95794.78;;;;
2022/06/14 05:55:00;;;;;;;6.299999;3.8;;;;;;;14.88;67.10742;95794.78;;;;
2022/06/14 05:56:06;;;;;;;6.299999;3.8;;;;;;;14.88;67.10742;95794.78;;;;
2022/06/14 05:57:14;;;;;;;6.299999;3.8;;;;;;;14.88;67.10742;95794.78;;;;
2022/06/14 05:58:23;;;;;;;6.299999;3.8;;;;;;;14.88;67.10742;95794.78;;;;
2022/06/14 05:59:32;;;;;;;6.299999;3.8;;;;;;;14.88;67.10742;95794.78;;;;
2022/06/14 06:00:38;;;;;;;15.5;4.9;;;;;;;15.37;66.1123;95795.79;;;;
2022/06/14 06:01:44;;;;;;;15.5;4.9;;;;;;;15.37;66.1123;95795.79;;;;
2022/06/14 06:02:52;;;;;;;15.5;4.9;;;;;;;15.37;66.1123;95795.79;;;;
2022/06/14 06:03:59;;;;;;;15.5;4.9;;;;;;;15.37;66.1123;95795.79;;;;
2022/06/14 06:05:05;;;;;;;15.5;4.9;;;;;;;15.37;66.1123;95795.79;;;;
2022/06/14 06:06:12;;;;;;;15.5;4.9;;;;;;;15.37;66.1123;95795.79;;;;
2022/06/14 06:07:17;;;;;;;15.5;4.9;;;;;;;15.37;66.1123;95795.79;;;;
2022/06/14 06:08:23;;;;;;;15.5;4.9;;;;;;;15.37;66.1123;95795.79;;;;
2022/06/14 06:09:31;;;;;;;15.5;4.9;;;;;;;15.37;66.1123;95795.79;;;;
2022/06/14 06:10:36;;;;;;;15.5;4.9;;;;;;;15.37;66.1123;95795.79;;;;
2022/06/14 06:11:41;;;;;;;6.050001;3.65;;;;;;;15.96;65.38184;95797.92;;;;
2022/06/14 06:12:48;;;;;;;6.050001;3.65;;;;;;;15.96;65.38184;95797.92;;;;
2022/06/14 06:13:55;;;;;;;6.050001;3.65;;;;;;;15.96;65.38184;95797.92;;;;
2022/06/14 06:15:02;;;;;;;6.050001;3.65;;;;;;;15.96;65.38184;95797.92;;;;
2022/06/14 06:16:12;;;;;;;6.050001;3.65;;;;;;;15.96;65.38184;95797.92;;;;
2022/06/14 06:17:18;;;;;;;6.050001;3.65;;;;;;;15.96;65.38184;95797.92;;;;
2022/06/14 06:18:24;;;;;;;6.050001;3.65;;;;;;;15.96;65.38184;95797.92;;;;